Glasgow, MT

8:11 PM MDT on April 23, 2017 (GMT -0600)
East Glasgow | | Change Station
Active Advisory: Lake Wind Advisory

Elev 2205 ft 48.19 °N, 106.61 °W | Updated 1 minute ago

Overcast
Overcast
35.3 °F
Feels Like 25 °F
N
18.0
Wind Variable Wind from ENE
Gusts 26.0 mph

Today
High -- | Low -- °F
--% Chance of Precip.
Yesterday
High -- | Low -- °F
Precip. -- in
Pressure 29.79 in
Visibility 10.0 miles
Clouds Overcast 10000 ft
Windchill 25 °F
Dew Point 29 °F
Humidity 78%
Rainfall 0.00 in
Snow Depth Not available.
6:01 AM 8:09 PM
Waning Crescent, 8% visible
METAR KGGW 240153Z AUTO 10021G26KT 10SM OVC100 02/M02 A2973 RMK AO2 PK WND 09028/0122 SLP088 T00221017 $
Pressure 29.79 in
Visibility 10.0 miles
Clouds Overcast 10000 ft
Windchill 25 °F
Dew Point 29 °F
Humidity 78%
Rainfall 0.00 in
Snow Depth Not available.
6:01 AM 8:09 PM
Waning Crescent, 8% visible
METAR KGGW 240153Z AUTO 10021G26KT 10SM OVC100 02/M02 A2973 RMK AO2 PK WND 09028/0122 SLP088 T00221017 $

Get Your Daily Forecast Email!

Thanks for signing up!

Be on the lookout for a verification email in your inbox.

You'll start receiving severe weather alerts in your inbox..

×

10-Day Weather Forecast

Almanac

Astronomy

Apr. 23, 2017 Rise Set
Actual Time
Civil Twilight
Nautical Twilight
Astronomical Twilight
Moon
Length of Visible Light
Length of Day
Tomorrow will be .
, % of the Moon is Illuminated

Today's Extremes

State Highs State Lows

Community

WunderPhotos

WunderBlog® & News

Nearby

Air Quality

  Air Quality AQ Index Pollutant
Not available.

Snow Depth

Station Depth Elevation

Earthquake Activity

City Distance Mag. Time & Date
Minimum magnitude displayed is 2.5.

Coastal Water Temperatures

Place Temperature

Stations

Nearby Weather Stations

Station Location Temp. Windchill Dew Point Humidity Wind Precip. Elev Updated Type
                   

Watches & Warnings

Lake Wind Advisory
Issued: 2:40 PM MDT Apr. 23, 2017 – National Weather Service

... Lake Wind Advisory now in effect until 10 PM MDT this evening
for Fort Peck Lake...

* winds... east 15 to 25 mph with gusts up to 30 mph.

* Timing... through 10 PM this evening.

* Impacts... these winds will make open waters of the lake rough
and hazardous, and may result in high waves which may tip or
swamp smaller craft.

Precautionary/preparedness actions...

Boaters should use extreme caution if venturing onto Fort Peck
Lake. For your personal safety, avoid the open waters. Stay close
to shore or around protected areas.